sensor_id;sensor_type;location;lat;lon;timestamp;pressure;altitude;pressure_sealevel;temperature;humidity
30935;BME280;51033;42.648;23.292;2024-01-06T00:02:16;93694.22;;;7.09;51.27
30935;BME280;51033;42.648;23.292;2024-01-06T00:04:42;93671.09;;;7.01;51.22
30935;BME280;51033;42.648;23.292;2024-01-06T00:07:07;93589.25;;;6.68;50.80
30935;BME280;51033;42.648;23.292;2024-01-06T00:09:33;93661.28;;;7.28;50.55
30935;BME280;51033;42.648;23.292;2024-01-06T00:11:58;93483.38;;;6.24;50.22
30935;BME280;51033;42.648;23.292;2024-01-06T00:14:24;93659.69;;;7.41;49.08
30935;BME280;51033;42.648;23.292;2024-01-06T00:16:49;93653.13;;;7.39;48.17
30935;BME280;51033;42.648;23.292;2024-01-06T00:19:14;93542.94;;;6.57;48.59
30935;BME280;51033;42.648;23.292;2024-01-06T00:21:44;93700.66;;;7.57;48.74
30935;BME280;51033;42.648;23.292;2024-01-06T00:24:09;93691.50;;;7.63;49.12
30935;BME280;51033;42.648;23.292;2024-01-06T00:26:36;93547.69;;;6.96;48.71
30935;BME280;51033;42.648;23.292;2024-01-06T00:29:01;93677.69;;;7.80;48.41
30935;BME280;51033;42.648;23.292;2024-01-06T00:31:26;93610.34;;;7.23;47.66
30935;BME280;51033;42.648;23.292;2024-01-06T00:33:52;93689.41;;;7.88;47.37
30935;BME280;51033;42.648;23.292;2024-01-06T00:36:17;93682.25;;;7.88;46.94
30935;BME280;51033;42.648;23.292;2024-01-06T00:38:43;93623.06;;;7.48;46.67
30935;BME280;51033;42.648;23.292;2024-01-06T00:41:08;93666.31;;;7.80;46.47
30935;BME280;51033;42.648;23.292;2024-01-06T00:43:34;93584.69;;;7.23;46.92
30935;BME280;51033;42.648;23.292;2024-01-06T00:45:59;93683.41;;;7.46;46.92
30935;BME280;51033;42.648;23.292;2024-01-06T00:48:25;93600.59;;;6.82;47.97
30935;BME280;51033;42.648;23.292;2024-01-06T00:50:50;93509.75;;;6.51;47.35
30935;BME280;51033;42.648;23.292;2024-01-06T00:53:15;93655.38;;;7.45;47.96
30935;BME280;51033;42.648;23.292;2024-01-06T00:55:41;93680.16;;;7.49;48.59
30935;BME280;51033;42.648;23.292;2024-01-06T00:58:06;93678.00;;;7.51;48.11
30935;BME280;51033;42.648;23.292;2024-01-06T01:00:32;93677.84;;;7.48;47.42
30935;BME280;51033;42.648;23.292;2024-01-06T01:02:57;93674.97;;;7.44;47.83
30935;BME280;51033;42.648;23.292;2024-01-06T01:05:22;93669.56;;;7.49;47.85
30935;BME280;51033;42.648;23.292;2024-01-06T01:07:48;93670.69;;;7.48;48.05
30935;BME280;51033;42.648;23.292;2024-01-06T01:10:13;93647.78;;;7.16;48.52
30935;BME280;51033;42.648;23.292;2024-01-06T01:12:39;93665.88;;;6.96;48.05
30935;BME280;51033;42.648;23.292;2024-01-06T01:15:05;93648.34;;;7.00;48.32
30935;BME280;51033;42.648;23.292;2024-01-06T01:17:31;93638.19;;;7.07;48.74
30935;BME280;51033;42.648;23.292;2024-01-06T01:19:56;93641.88;;;7.19;48.09
30935;BME280;51033;42.648;23.292;2024-01-06T01:22:21;93667.25;;;7.34;48.08
30935;BME280;51033;42.648;23.292;2024-01-06T01:24:50;93600.50;;;6.88;48.22
30935;BME280;51033;42.648;23.292;2024-01-06T01:27:15;93659.03;;;7.22;47.95
30935;BME280;51033;42.648;23.292;2024-01-06T01:29:41;93658.16;;;7.26;47.95
30935;BME280;51033;42.648;23.292;2024-01-06T01:32:06;93622.81;;;7.09;47.73
30935;BME280;51033;42.648;23.292;2024-01-06T01:34:31;93648.34;;;7.00;48.17
30935;BME280;51033;42.648;23.292;2024-01-06T01:36:57;93569.06;;;6.45;48.27
30935;BME280;51033;42.648;23.292;2024-01-06T01:39:22;93644.63;;;7.01;48.12
30935;BME280;51033;42.648;23.292;2024-01-06T01:41:48;93529.41;;;6.18;48.58
30935;BME280;51033;42.648;23.292;2024-01-06T01:44:13;93636.13;;;7.04;48.53
30935;BME280;51033;42.648;23.292;2024-01-06T01:46:39;93537.84;;;6.47;48.66
30935;BME280;51033;42.648;23.292;2024-01-06T01:49:05;93609.78;;;6.99;49.09
30935;BME280;51033;42.648;23.292;2024-01-06T01:51:33;93623.69;;;7.18;49.25
30935;BME280;51033;42.648;23.292;2024-01-06T01:54:04;93547.31;;;6.75;48.86
30935;BME280;51033;42.648;23.292;2024-01-06T01:56:31;93636.00;;;7.36;48.57
30935;BME280;51033;42.648;23.292;2024-01-06T01:59:09;93511.91;;;6.63;48.51
30935;BME280;51033;42.648;23.292;2024-01-06T02:01:36;93611.28;;;7.41;48.29
30935;BME280;51033;42.648;23.292;2024-01-06T02:04:03;93424.28;;;6.20;48.21
30935;BME280;51033;42.648;23.292;2024-01-06T02:06:28;93580.06;;;7.29;47.85
30935;BME280;51033;42.648;23.292;2024-01-06T02:08:54;93615.56;;;7.50;48.02
30935;BME280;51033;42.648;23.292;2024-01-06T02:11:20;93608.94;;;7.53;48.33
30935;BME280;51033;42.648;23.292;2024-01-06T02:13:46;93600.88;;;7.44;48.50
30935;BME280;51033;42.648;23.292;2024-01-06T02:16:11;93453.81;;;6.49;48.72
30935;BME280;51033;42.648;23.292;2024-01-06T02:18:36;93600.78;;;7.49;48.32
30935;BME280;51033;42.648;23.292;2024-01-06T02:21:02;93487.84;;;6.64;48.60
30935;BME280;51033;42.648;23.292;2024-01-06T02:23:28;93593.34;;;6.74;49.08
30935;BME280;51033;42.648;23.292;2024-01-06T02:25:54;93598.66;;;6.74;49.27
30935;BME280;51033;42.648;23.292;2024-01-06T02:28:20;93484.75;;;6.35;49.15
30935;BME280;51033;42.648;23.292;2024-01-06T02:30:46;93494.09;;;6.41;49.32
30935;BME280;51033;42.648;23.292;2024-01-06T02:33:12;93490.09;;;6.57;49.22
30935;BME280;51033;42.648;23.292;2024-01-06T02:35:46;93509.28;;;6.49;49.64
30935;BME280;51033;42.648;23.292;2024-01-06T02:38:12;93371.41;;;5.24;50.66
30935;BME280;51033;42.648;23.292;2024-01-06T02:40:37;93367.66;;;5.57;50.00
30935;BME280;51033;42.648;23.292;2024-01-06T02:43:03;93481.50;;;6.38;50.12
30935;BME280;51033;42.648;23.292;2024-01-06T02:45:28;93557.66;;;7.13;49.61
30935;BME280;51033;42.648;23.292;2024-01-06T02:47:54;93483.91;;;6.62;49.74
30935;BME280;51033;42.648;23.292;2024-01-06T02:50:19;93503.06;;;6.81;49.55
30935;BME280;51033;42.648;23.292;2024-01-06T02:52:45;93558.25;;;7.23;49.85
30935;BME280;51033;42.648;23.292;2024-01-06T02:55:10;93554.09;;;7.31;49.23
30935;BME280;51033;42.648;23.292;2024-01-06T02:57:37;93548.91;;;7.26;49.53
30935;BME280;51033;42.648;23.292;2024-01-06T03:00:03;93362.28;;;6.04;49.68
30935;BME280;51033;42.648;23.292;2024-01-06T03:02:28;93532.53;;;7.24;49.71
30935;BME280;51033;42.648;23.292;2024-01-06T03:04:54;93384.38;;;6.35;49.53
30935;BME280;51033;42.648;23.292;2024-01-06T03:07:20;93474.31;;;6.79;49.68
30935;BME280;51033;42.648;23.292;2024-01-06T03:09:46;93517.44;;;7.02;50.48
30935;BME280;51033;42.648;23.292;2024-01-06T03:12:11;93399.47;;;6.21;50.28
30935;BME280;51033;42.648;23.292;2024-01-06T03:14:37;93544.53;;;7.21;50.26
30935;BME280;51033;42.648;23.292;2024-01-06T03:17:03;93508.19;;;6.64;51.66
30935;BME280;51033;42.648;23.292;2024-01-06T03:19:30;93497.44;;;6.74;51.21
30935;BME280;51033;42.648;23.292;2024-01-06T03:21:55;93531.44;;;7.03;50.80
30935;BME280;51033;42.648;23.292;2024-01-06T03:24:22;93329.34;;;5.87;50.47
30935;BME280;51033;42.648;23.292;2024-01-06T03:26:48;93340.69;;;5.88;50.67
30935;BME280;51033;42.648;23.292;2024-01-06T03:29:17;93445.78;;;6.54;50.64
30935;BME280;51033;42.648;23.292;2024-01-06T03:31:43;93475.31;;;6.70;50.95
30935;BME280;51033;42.648;23.292;2024-01-06T03:34:09;93538.50;;;6.94;51.12
30935;BME280;51033;42.648;23.292;2024-01-06T03:36:35;93534.97;;;6.98;51.06
30935;BME280;51033;42.648;23.292;2024-01-06T03:39:05;93415.28;;;6.34;50.82
30935;BME280;51033;42.648;23.292;2024-01-06T03:41:35;93420.94;;;6.41;50.98
30935;BME280;51033;42.648;23.292;2024-01-06T03:44:00;93462.38;;;6.68;50.89
30935;BME280;51033;42.648;23.292;2024-01-06T03:46:27;93455.63;;;6.62;50.67
30935;BME280;51033;42.648;23.292;2024-01-06T03:48:52;93537.09;;;7.10;50.40
30935;BME280;51033;42.648;23.292;2024-01-06T03:51:18;93500.94;;;6.83;50.93
30935;BME280;51033;42.648;23.292;2024-01-06T03:53:43;93447.75;;;6.35;50.87
30935;BME280;51033;42.648;23.292;2024-01-06T03:56:08;93532.25;;;6.90;51.16
30935;BME280;51033;42.648;23.292;2024-01-06T03:58:34;93533.22;;;6.94;51.06
30935;BME280;51033;42.648;23.292;2024-01-06T04:01:00;93428.97;;;6.23;51.44
30935;BME280;51033;42.648;23.292;2024-01-06T04:03:25;93526.19;;;6.89;51.39
30935;BME280;51033;42.648;23.292;2024-01-06T04:05:51;93409.41;;;6.24;51.01
30935;BME280;51033;42.648;23.292;2024-01-06T04:08:17;93519.16;;;6.84;51.33
30935;BME280;51033;42.648;23.292;2024-01-06T04:10:43;93520.13;;;6.89;51.15
30935;BME280;51033;42.648;23.292;2024-01-06T04:13:24;93525.97;;;6.99;50.35
30935;BME280;51033;42.648;23.292;2024-01-06T04:15:51;93521.94;;;7.02;50.66
30935;BME280;51033;42.648;23.292;2024-01-06T04:18:16;93400.31;;;6.30;49.94
30935;BME280;51033;42.648;23.292;2024-01-06T04:20:42;93520.25;;;7.06;50.28
30935;BME280;51033;42.648;23.292;2024-01-06T04:23:07;93445.84;;;6.63;50.07
30935;BME280;51033;42.648;23.292;2024-01-06T04:25:33;93453.84;;;6.71;49.73
30935;BME280;51033;42.648;23.292;2024-01-06T04:27:58;93490.81;;;6.99;50.25
30935;BME280;51033;42.648;23.292;2024-01-06T04:30:23;93410.34;;;6.55;49.15
30935;BME280;51033;42.648;23.292;2024-01-06T04:32:50;93535.72;;;7.12;49.80
30935;BME280;51033;42.648;23.292;2024-01-06T04:35:17;93535.94;;;7.02;50.17
30935;BME280;51033;42.648;23.292;2024-01-06T04:37:42;93481.66;;;6.69;50.41
30935;BME280;51033;42.648;23.292;2024-01-06T04:40:08;93466.50;;;6.61;49.81
30935;BME280;51033;42.648;23.292;2024-01-06T04:42:33;93528.31;;;7.01;50.30
30935;BME280;51033;42.648;23.292;2024-01-06T04:44:59;93421.69;;;5.74;51.20
30935;BME280;51033;42.648;23.292;2024-01-06T04:47:30;93538.63;;;6.75;51.14
30935;BME280;51033;42.648;23.292;2024-01-06T04:49:56;93537.66;;;6.57;51.07
30935;BME280;51033;42.648;23.292;2024-01-06T04:52:22;93558.09;;;6.65;50.79
30935;BME280;51033;42.648;23.292;2024-01-06T04:54:47;93508.59;;;6.43;50.81
30935;BME280;51033;42.648;23.292;2024-01-06T04:57:13;93519.75;;;6.54;51.04
30935;BME280;51033;42.648;23.292;2024-01-06T04:59:39;93544.13;;;6.78;50.69
30935;BME280;51033;42.648;23.292;2024-01-06T05:02:04;93536.38;;;6.82;50.48
30935;BME280;51033;42.648;23.292;2024-01-06T05:04:30;93536.38;;;6.82;51.17
30935;BME280;51033;42.648;23.292;2024-01-06T05:06:58;93527.38;;;6.83;50.93
30935;BME280;51033;42.648;23.292;2024-01-06T05:09:23;93542.84;;;6.90;50.78
30935;BME280;51033;42.648;23.292;2024-01-06T05:11:48;93506.44;;;6.59;51.26
30935;BME280;51033;42.648;23.292;2024-01-06T05:14:14;93527.09;;;6.16;53.11
30935;BME280;51033;42.648;23.292;2024-01-06T05:16:39;93529.72;;;6.30;52.61
30935;BME280;51033;42.648;23.292;2024-01-06T05:19:05;93491.19;;;6.29;52.28
30935;BME280;51033;42.648;23.292;2024-01-06T05:21:30;93486.88;;;6.33;51.99
30935;BME280;51033;42.648;23.292;2024-01-06T05:23:56;93288.59;;;4.33;53.38
30935;BME280;51033;42.648;23.292;2024-01-06T05:26:21;93513.41;;;5.82;53.72
30935;BME280;51033;42.648;23.292;2024-01-06T05:28:47;93508.34;;;6.13;53.29
30935;BME280;51033;42.648;23.292;2024-01-06T05:31:12;93521.50;;;6.18;52.81
30935;BME280;51033;42.648;23.292;2024-01-06T05:33:38;93496.72;;;6.14;52.68
30935;BME280;51033;42.648;23.292;2024-01-06T05:36:03;93501.50;;;6.12;52.71
30935;BME280;51033;42.648;23.292;2024-01-06T05:38:29;93498.72;;;6.22;52.60
30935;BME280;51033;42.648;23.292;2024-01-06T05:40:58;93517.69;;;6.24;52.49
30935;BME280;51033;42.648;23.292;2024-01-06T05:43:23;93503.56;;;6.15;52.26
30935;BME280;51033;42.648;23.292;2024-01-06T05:45:49;93488.13;;;6.08;52.42
30935;BME280;51033;42.648;23.292;2024-01-06T05:48:14;93466.91;;;5.99;52.25
30935;BME280;51033;42.648;23.292;2024-01-06T05:50:40;93505.66;;;6.18;52.58
30935;BME280;51033;42.648;23.292;2024-01-06T05:53:06;93507.63;;;6.26;52.12
30935;BME280;51033;42.648;23.292;2024-01-06T05:55:32;93496.06;;;6.22;52.41
30935;BME280;51033;42.648;23.292;2024-01-06T05:57:57;93396.88;;;5.61;52.19
30935;BME280;51033;42.648;23.292;2024-01-06T06:00:23;93500.28;;;6.23;52.20
30935;BME280;51033;42.648;23.292;2024-01-06T06:02:49;93463.09;;;6.06;51.85
30935;BME280;51033;42.648;23.292;2024-01-06T06:05:14;93458.97;;;5.99;52.03
30935;BME280;51033;42.648;23.292;2024-01-06T06:07:39;93505.88;;;6.35;51.91
30935;BME280;51033;42.648;23.292;2024-01-06T06:10:10;93502.63;;;6.38;51.82
30935;BME280;51033;42.648;23.292;2024-01-06T06:12:38;93499.56;;;6.04;52.35
30935;BME280;51033;42.648;23.292;2024-01-06T06:15:05;93490.66;;;6.13;52.52
30935;BME280;51033;42.648;23.292;2024-01-06T06:17:31;93441.66;;;5.93;52.25
30935;BME280;51033;42.648;23.292;2024-01-06T06:19:57;93483.97;;;5.88;53.11
30935;BME280;51033;42.648;23.292;2024-01-06T06:22:26;93496.00;;;5.81;53.36
30935;BME280;51033;42.648;23.292;2024-01-06T06:25:01;93493.16;;;5.77;53.14
30935;BME280;51033;42.648;23.292;2024-01-06T06:27:27;93495.34;;;5.56;54.33
30935;BME280;51033;42.648;23.292;2024-01-06T06:29:54;93493.44;;;5.11;55.45
30935;BME280;51033;42.648;23.292;2024-01-06T06:32:21;93500.00;;;5.46;54.64
30935;BME280;51033;42.648;23.292;2024-01-06T06:34:47;93419.22;;;5.04;54.26
30935;BME280;51033;42.648;23.292;2024-01-06T06:37:12;93508.84;;;5.55;54.38
30935;BME280;51033;42.648;23.292;2024-01-06T06:39:38;93495.53;;;5.46;54.54
30935;BME280;51033;42.648;23.292;2024-01-06T06:42:03;93501.25;;;5.67;53.81
30935;BME280;51033;42.648;23.292;2024-01-06T06:44:29;93518.41;;;5.51;54.71
30935;BME280;51033;42.648;23.292;2024-01-06T06:46:58;93494.81;;;4.00;58.34
30935;BME280;51033;42.648;23.292;2024-01-06T06:49:23;93510.38;;;3.96;59.33
30935;BME280;51033;42.648;23.292;2024-01-06T06:51:48;93492.56;;;4.36;58.89
30935;BME280;51033;42.648;23.292;2024-01-06T06:54:15;93518.66;;;4.98;57.22
30935;BME280;51033;42.648;23.292;2024-01-06T06:56:44;93509.00;;;4.70;57.68
30935;BME280;51033;42.648;23.292;2024-01-06T06:59:10;93403.72;;;4.22;57.24
30935;BME280;51033;42.648;23.292;2024-01-06T07:01:35;93492.09;;;5.13;56.81
30935;BME280;51033;42.648;23.292;2024-01-06T07:04:08;93508.63;;;5.51;55.62
30935;BME280;51033;42.648;23.292;2024-01-06T07:06:35;93510.03;;;5.63;55.76
30935;BME280;51033;42.648;23.292;2024-01-06T07:09:01;93509.00;;;5.77;55.63
30935;BME280;51033;42.648;23.292;2024-01-06T07:11:27;93505.59;;;5.90;55.27
30935;BME280;51033;42.648;23.292;2024-01-06T07:13:52;93509.13;;;5.99;54.94
30935;BME280;51033;42.648;23.292;2024-01-06T07:16:18;93485.63;;;5.84;54.62
30935;BME280;51033;42.648;23.292;2024-01-06T07:18:44;93484.44;;;5.12;56.58
30935;BME280;51033;42.648;23.292;2024-01-06T07:21:09;93419.03;;;5.14;55.95
30935;BME280;51033;42.648;23.292;2024-01-06T07:23:42;93500.88;;;5.87;55.47
30935;BME280;51033;42.648;23.292;2024-01-06T07:26:07;93501.59;;;5.93;55.55
30935;BME280;51033;42.648;23.292;2024-01-06T07:28:33;93495.13;;;5.53;55.86
30935;BME280;51033;42.648;23.292;2024-01-06T07:31:00;93496.53;;;5.64;56.72
30935;BME280;51033;42.648;23.292;2024-01-06T07:33:25;93493.28;;;5.99;55.85
30935;BME280;51033;42.648;23.292;2024-01-06T07:35:51;93501.72;;;5.69;56.57
30935;BME280;51033;42.648;23.292;2024-01-06T07:38:17;93395.75;;;5.35;55.72
30935;BME280;51033;42.648;23.292;2024-01-06T07:40:45;93450.16;;;5.90;55.08
30935;BME280;51033;42.648;23.292;2024-01-06T07:43:13;93478.97;;;6.19;55.18
30935;BME280;51033;42.648;23.292;2024-01-06T07:45:40;93400.22;;;5.94;54.62
30935;BME280;51033;42.648;23.292;2024-01-06T07:48:07;93471.59;;;6.57;54.00
30935;BME280;51033;42.648;23.292;2024-01-06T07:50:32;93389.00;;;6.16;53.81
30935;BME280;51033;42.648;23.292;2024-01-06T07:52:57;93430.72;;;6.00;54.58
30935;BME280;51033;42.648;23.292;2024-01-06T07:55:23;93492.53;;;6.67;54.14
30935;BME280;51033;42.648;23.292;2024-01-06T07:57:48;93474.63;;;6.64;54.25
30935;BME280;51033;42.648;23.292;2024-01-06T08:00:14;93418.78;;;6.43;53.75
30935;BME280;51033;42.648;23.292;2024-01-06T08:02:42;93492.84;;;7.02;53.42
30935;BME280;51033;42.648;23.292;2024-01-06T08:05:08;93494.56;;;7.20;53.09
30935;BME280;51033;42.648;23.292;2024-01-06T08:07:34;93483.75;;;7.30;52.63
30935;BME280;51033;42.648;23.292;2024-01-06T08:09:59;93410.16;;;6.88;52.83
30935;BME280;51033;42.648;23.292;2024-01-06T08:12:25;93485.69;;;7.38;53.13
30935;BME280;51033;42.648;23.292;2024-01-06T08:14:50;93488.25;;;7.07;53.42
30935;BME280;51033;42.648;23.292;2024-01-06T08:17:16;93455.22;;;6.82;53.75
30935;BME280;51033;42.648;23.292;2024-01-06T08:19:41;93413.81;;;6.78;53.46
30935;BME280;51033;42.648;23.292;2024-01-06T08:22:07;93480.56;;;7.42;52.93
30935;BME280;51033;42.648;23.292;2024-01-06T08:24:36;93383.97;;;7.00;52.47
30935;BME280;51033;42.648;23.292;2024-01-06T08:27:01;93350.44;;;6.86;51.76
30935;BME280;51033;42.648;23.292;2024-01-06T08:29:26;93450.16;;;7.53;51.31
30935;BME280;51033;42.648;23.292;2024-01-06T08:31:52;93483.34;;;7.37;51.85
30935;BME280;51033;42.648;23.292;2024-01-06T08:34:19;93467.94;;;7.61;51.57
30935;BME280;51033;42.648;23.292;2024-01-06T08:36:45;93482.25;;;7.60;50.98
30935;BME280;51033;42.648;23.292;2024-01-06T08:39:11;93487.94;;;7.53;51.72
30935;BME280;51033;42.648;23.292;2024-01-06T08:41:39;93471.81;;;7.77;51.54
30935;BME280;51033;42.648;23.292;2024-01-06T08:44:05;93487.06;;;7.58;50.19
30935;BME280;51033;42.648;23.292;2024-01-06T08:46:31;93427.13;;;7.09;51.67
30935;BME280;51033;42.648;23.292;2024-01-06T08:48:56;93474.22;;;7.43;52.26
30935;BME280;51033;42.648;23.292;2024-01-06T08:51:22;93498.97;;;6.89;54.01
30935;BME280;51033;42.648;23.292;2024-01-06T08:53:49;93477.94;;;7.06;53.34
30935;BME280;51033;42.648;23.292;2024-01-06T08:56:14;93394.13;;;6.48;53.79
30935;BME280;51033;42.648;23.292;2024-01-06T08:58:41;93476.66;;;6.81;54.63
30935;BME280;51033;42.648;23.292;2024-01-06T09:01:06;93413.03;;;7.00;53.38
30935;BME280;51033;42.648;23.292;2024-01-06T09:03:32;93481.22;;;7.03;53.36
30935;BME280;51033;42.648;23.292;2024-01-06T09:05:57;93421.34;;;6.84;53.89
30935;BME280;51033;42.648;23.292;2024-01-06T09:08:28;93255.69;;;5.77;53.26
30935;BME280;51033;42.648;23.292;2024-01-06T09:10:57;93384.69;;;6.56;53.77
30935;BME280;51033;42.648;23.292;2024-01-06T09:13:26;93389.19;;;6.69;52.76
30935;BME280;51033;42.648;23.292;2024-01-06T09:15:52;93369.69;;;6.15;54.22
30935;BME280;51033;42.648;23.292;2024-01-06T09:18:17;93457.19;;;7.13;53.36
30935;BME280;51033;42.648;23.292;2024-01-06T09:20:43;93444.88;;;6.59;54.46
30935;BME280;51033;42.648;23.292;2024-01-06T09:23:08;93276.28;;;5.75;54.56
30935;BME280;51033;42.648;23.292;2024-01-06T09:25:35;93438.31;;;7.28;53.79
30935;BME280;51033;42.648;23.292;2024-01-06T09:28:01;93342.06;;;6.71;53.54
30935;BME280;51033;42.648;23.292;2024-01-06T09:30:29;93272.72;;;6.65;52.76
30935;BME280;51033;42.648;23.292;2024-01-06T09:32:55;93417.53;;;7.44;53.09
30935;BME280;51033;42.648;23.292;2024-01-06T09:35:20;93397.72;;;7.63;52.18
30935;BME280;51033;42.648;23.292;2024-01-06T09:37:49;93228.00;;;6.47;52.48
30935;BME280;51033;42.648;23.292;2024-01-06T09:40:21;93259.22;;;6.98;52.32
30935;BME280;51033;42.648;23.292;2024-01-06T09:42:46;93228.66;;;6.74;51.45
30935;BME280;51033;42.648;23.292;2024-01-06T09:45:12;93336.31;;;7.44;51.79
30935;BME280;51033;42.648;23.292;2024-01-06T09:47:40;93216.94;;;6.98;51.51
30935;BME280;51033;42.648;23.292;2024-01-06T09:50:08;93397.22;;;7.84;52.26
30935;BME280;51033;42.648;23.292;2024-01-06T09:52:39;93378.34;;;8.16;51.69
30935;BME280;51033;42.648;23.292;2024-01-06T09:55:10;93383.97;;;8.23;51.97
30935;BME280;51033;42.648;23.292;2024-01-06T09:57:36;93322.97;;;7.97;51.42
30935;BME280;51033;42.648;23.292;2024-01-06T10:00:06;93389.91;;;8.37;51.17
30935;BME280;51033;42.648;23.292;2024-01-06T10:02:33;93191.69;;;7.22;51.13
30935;BME280;51033;42.648;23.292;2024-01-06T10:04:58;93232.00;;;7.28;51.29
30935;BME280;51033;42.648;23.292;2024-01-06T10:07:28;93369.53;;;7.59;53.26
30935;BME280;51033;42.648;23.292;2024-01-06T10:09:56;93367.34;;;7.30;53.81
30935;BME280;51033;42.648;23.292;2024-01-06T10:12:25;93381.28;;;7.13;55.06
30935;BME280;51033;42.648;23.292;2024-01-06T10:14:51;93234.22;;;6.51;54.74
30935;BME280;51033;42.648;23.292;2024-01-06T10:17:17;93283.03;;;7.28;53.95
30935;BME280;51033;42.648;23.292;2024-01-06T10:19:45;93366.41;;;7.57;53.90
30935;BME280;51033;42.648;23.292;2024-01-06T10:22:10;93358.34;;;7.31;54.58
30935;BME280;51033;42.648;23.292;2024-01-06T10:24:40;93355.31;;;7.46;55.07
30935;BME280;51033;42.648;23.292;2024-01-06T10:27:05;93350.56;;;7.65;54.09
30935;BME280;51033;42.648;23.292;2024-01-06T10:29:31;93357.59;;;8.01;52.94
30935;BME280;51033;42.648;23.292;2024-01-06T10:31:58;93236.69;;;7.40;52.85
30935;BME280;51033;42.648;23.292;2024-01-06T10:34:24;93338.09;;;7.97;53.41
30935;BME280;51033;42.648;23.292;2024-01-06T10:36:50;93265.66;;;7.45;52.94
30935;BME280;51033;42.648;23.292;2024-01-06T10:39:18;93260.59;;;7.26;52.73
30935;BME280;51033;42.648;23.292;2024-01-06T10:41:44;93231.28;;;6.74;54.97
30935;BME280;51033;42.648;23.292;2024-01-06T10:44:10;93330.31;;;7.30;54.81
30935;BME280;51033;42.648;23.292;2024-01-06T10:46:38;93326.72;;;7.26;54.70
30935;BME280;51033;42.648;23.292;2024-01-06T10:49:05;93310.03;;;7.17;54.45
30935;BME280;51033;42.648;23.292;2024-01-06T10:51:34;93322.34;;;7.21;54.49
30935;BME280;51033;42.648;23.292;2024-01-06T10:54:01;93319.47;;;7.40;54.19
30935;BME280;51033;42.648;23.292;2024-01-06T10:56:29;93306.38;;;7.35;54.37
30935;BME280;51033;42.648;23.292;2024-01-06T10:58:56;93306.13;;;7.45;54.04
30935;BME280;51033;42.648;23.292;2024-01-06T11:01:29;93307.94;;;7.05;55.04
30935;BME280;51033;42.648;23.292;2024-01-06T11:03:55;93269.00;;;6.89;54.80
30935;BME280;51033;42.648;23.292;2024-01-06T11:06:21;93256.34;;;6.55;54.92
30935;BME280;51033;42.648;23.292;2024-01-06T11:09:11;93292.06;;;6.74;56.26
30935;BME280;51033;42.648;23.292;2024-01-06T11:11:39;93288.72;;;7.13;54.92
30935;BME280;51033;42.648;23.292;2024-01-06T11:16:47;93261.28;;;7.09;54.89
30935;BME280;51033;42.648;23.292;2024-01-06T11:24:47;93279.94;;;7.35;55.68
30935;BME280;51033;42.648;23.292;2024-01-06T11:27:24;93266.03;;;7.60;54.11
30935;BME280;51033;42.648;23.292;2024-01-06T11:29:57;93117.50;;;6.40;54.45
30935;BME280;51033;42.648;23.292;2024-01-06T11:32:30;93265.88;;;7.57;54.14
30935;BME280;51033;42.648;23.292;2024-01-06T11:35:13;93259.41;;;7.32;54.51
30935;BME280;51033;42.648;23.292;2024-01-06T11:40:23;93062.06;;;6.49;54.47
30935;BME280;51033;42.648;23.292;2024-01-06T11:43:00;93225.66;;;7.38;53.10
30935;BME280;51033;42.648;23.292;2024-01-06T11:45:27;93231.72;;;7.38;53.50
30935;BME280;51033;42.648;23.292;2024-01-06T11:48:00;93215.72;;;7.43;53.22
30935;BME280;51033;42.648;23.292;2024-01-06T11:50:38;93217.00;;;7.15;53.56
30935;BME280;51033;42.648;23.292;2024-01-06T11:53:05;93209.59;;;7.34;52.71
30935;BME280;51033;42.648;23.292;2024-01-06T11:55:31;93199.13;;;7.20;53.70
30935;BME280;51033;42.648;23.292;2024-01-06T11:57:58;93175.16;;;7.08;53.94
30935;BME280;51033;42.648;23.292;2024-01-06T12:00:27;93166.53;;;6.94;54.25
30935;BME280;51033;42.648;23.292;2024-01-06T12:03:00;93176.91;;;7.30;54.04
30935;BME280;51033;42.648;23.292;2024-01-06T12:05:26;93184.19;;;7.16;53.37
30935;BME280;51033;42.648;23.292;2024-01-06T12:07:57;93174.91;;;7.36;53.39
30935;BME280;51033;42.648;23.292;2024-01-06T12:10:28;93109.44;;;6.84;53.43
30935;BME280;51033;42.648;23.292;2024-01-06T12:13:02;93178.38;;;7.62;52.49
30935;BME280;51033;42.648;23.292;2024-01-06T12:15:29;93149.63;;;8.03;51.99
30935;BME280;51033;42.648;23.292;2024-01-06T12:17:55;93164.06;;;8.49;50.10
30935;BME280;51033;42.648;23.292;2024-01-06T12:20:25;93159.31;;;8.72;49.83
30935;BME280;51033;42.648;23.292;2024-01-06T12:22:54;93151.53;;;8.75;49.31
30935;BME280;51033;42.648;23.292;2024-01-06T12:25:24;93177.38;;;9.33;48.61
30935;BME280;51033;42.648;23.292;2024-01-06T12:27:52;93178.34;;;9.58;47.34
30935;BME280;51033;42.648;23.292;2024-01-06T12:30:21;93177.44;;;9.45;47.09
30935;BME280;51033;42.648;23.292;2024-01-06T12:32:50;93170.31;;;8.91;48.47
30935;BME280;51033;42.648;23.292;2024-01-06T12:35:17;93032.72;;;8.31;47.68
30935;BME280;51033;42.648;23.292;2024-01-06T12:37:46;93026.13;;;8.37;48.10
30935;BME280;51033;42.648;23.292;2024-01-06T12:40:12;93136.34;;;8.29;49.61
30935;BME280;51033;42.648;23.292;2024-01-06T12:42:38;93175.94;;;8.98;49.67
30935;BME280;51033;42.648;23.292;2024-01-06T12:45:05;92957.38;;;7.30;49.04
30935;BME280;51033;42.648;23.292;2024-01-06T12:47:32;93134.16;;;8.95;49.17
30935;BME280;51033;42.648;23.292;2024-01-06T12:49:57;93032.72;;;8.69;48.11
30935;BME280;51033;42.648;23.292;2024-01-06T12:52:25;93152.28;;;9.22;49.02
30935;BME280;51033;42.648;23.292;2024-01-06T12:54:54;93057.38;;;8.98;48.26
30935;BME280;51033;42.648;23.292;2024-01-06T12:57:23;93048.84;;;8.46;48.88
30935;BME280;51033;42.648;23.292;2024-01-06T12:59:48;93130.47;;;9.17;48.31
30935;BME280;51033;42.648;23.292;2024-01-06T13:02:14;93079.34;;;8.14;50.45
30935;BME280;51033;42.648;23.292;2024-01-06T13:04:39;93150.34;;;8.55;49.90
30935;BME280;51033;42.648;23.292;2024-01-06T13:07:04;93055.22;;;7.99;50.24
30935;BME280;51033;42.648;23.292;2024-01-06T13:09:30;93129.59;;;8.57;50.18